sensor_id;sensor_type;location;lat;lon;timestamp;pressure;altitude;pressure_sealevel;temperature;humidity
62708;BME280;48769;51.624;5.886;2023-05-27T00:01:30;102734.91;;;10.77;86.96
62708;BME280;48769;51.624;5.886;2023-05-27T00:03:55;102736.84;;;10.69;87.74
62708;BME280;48769;51.624;5.886;2023-05-27T00:06:20;102742.19;;;10.66;87.92
62708;BME280;48769;51.624;5.886;2023-05-27T00:08:46;102743.09;;;10.65;87.71
62708;BME280;48769;51.624;5.886;2023-05-27T00:11:11;102746.69;;;10.62;88.15
62708;BME280;48769;51.624;5.886;2023-05-27T00:13:36;102746.75;;;10.59;88.28
62708;BME280;48769;51.624;5.886;2023-05-27T00:16:02;102737.13;;;10.57;88.54
62708;BME280;48769;51.624;5.886;2023-05-27T00:18:27;102740.53;;;10.62;88.20
62708;BME280;48769;51.624;5.886;2023-05-27T00:20:53;102733.44;;;10.64;87.99
62708;BME280;48769;51.624;5.886;2023-05-27T00:23:18;102741.34;;;10.65;87.76
62708;BME280;48769;51.624;5.886;2023-05-27T00:25:43;102738.59;;;10.70;88.02
62708;BME280;48769;51.624;5.886;2023-05-27T00:28:09;102731.53;;;10.70;87.75
62708;BME280;48769;51.624;5.886;2023-05-27T00:30:34;102730.63;;;10.71;87.34
62708;BME280;48769;51.624;5.886;2023-05-27T00:32:59;102729.81;;;10.69;87.78
62708;BME280;48769;51.624;5.886;2023-05-27T00:35:25;102720.09;;;10.70;87.81
62708;BME280;48769;51.624;5.886;2023-05-27T00:37:50;102724.41;;;10.74;87.52
62708;BME280;48769;51.624;5.886;2023-05-27T00:40:20;102732.38;;;10.72;87.81
62708;BME280;48769;51.624;5.886;2023-05-27T00:42:46;102731.56;;;10.69;88.94
62708;BME280;48769;51.624;5.886;2023-05-27T00:45:12;102730.75;;;10.67;88.59
62708;BME280;48769;51.624;5.886;2023-05-27T00:47:37;102721.16;;;10.63;88.02
62708;BME280;48769;51.624;5.886;2023-05-27T00:50:03;102731.03;;;10.53;88.22
62708;BME280;48769;51.624;5.886;2023-05-27T00:52:29;102724.88;;;10.52;88.70
62708;BME280;48769;51.624;5.886;2023-05-27T00:54:55;102731.97;;;10.50;88.97
62708;BME280;48769;51.624;5.886;2023-05-27T00:57:21;102732.84;;;10.49;88.63
62708;BME280;48769;51.624;5.886;2023-05-27T00:59:47;102724.25;;;10.40;89.43
62708;BME280;48769;51.624;5.886;2023-05-27T01:02:13;102716.44;;;10.35;89.66
62708;BME280;48769;51.624;5.886;2023-05-27T01:04:40;102713.19;;;10.21;91.19
62708;BME280;48769;51.624;5.886;2023-05-27T01:10:05;102709.63;;;10.22;90.92
62708;BME280;48769;51.624;5.886;2023-05-27T01:12:46;102717.66;;;10.17;91.18
62708;BME280;48769;51.624;5.886;2023-05-27T01:15:14;102712.50;;;10.11;91.80
62708;BME280;48769;51.624;5.886;2023-05-27T01:17:40;102709.69;;;10.19;91.66
62708;BME280;48769;51.624;5.886;2023-05-27T01:20:09;102704.59;;;10.10;92.00
62708;BME280;48769;51.624;5.886;2023-05-27T01:22:36;102701.25;;;10.01;92.62
62708;BME280;48769;51.624;5.886;2023-05-27T01:25:02;102698.56;;;10.03;92.83
62708;BME280;48769;51.624;5.886;2023-05-27T01:27:28;102700.38;;;10.01;92.92
62708;BME280;48769;51.624;5.886;2023-05-27T01:29:54;102694.06;;;10.06;92.82
62708;BME280;48769;51.624;5.886;2023-05-27T01:35:07;102687.22;;;9.98;93.49
62708;BME280;48769;51.624;5.886;2023-05-27T01:37:37;102693.44;;;9.94;93.48
62708;BME280;48769;51.624;5.886;2023-05-27T01:40:08;102697.03;;;9.91;93.77
62708;BME280;48769;51.624;5.886;2023-05-27T01:42:41;102701.41;;;9.92;94.48
62708;BME280;48769;51.624;5.886;2023-05-27T01:45:08;102699.84;;;9.82;95.31
62708;BME280;48769;51.624;5.886;2023-05-27T01:47:34;102705.19;;;9.77;95.62
62708;BME280;48769;51.624;5.886;2023-05-27T01:49:59;102697.25;;;9.79;95.15
62708;BME280;48769;51.624;5.886;2023-05-27T01:52:25;102699.78;;;9.85;95.03
62708;BME280;48769;51.624;5.886;2023-05-27T01:54:51;102706.09;;;9.76;96.09
62708;BME280;48769;51.624;5.886;2023-05-27T01:57:17;102709.75;;;9.68;97.56
62708;BME280;48769;51.624;5.886;2023-05-27T01:59:42;102706.09;;;9.76;96.62
62708;BME280;48769;51.624;5.886;2023-05-27T02:02:08;102700.81;;;9.76;96.40
62708;BME280;48769;51.624;5.886;2023-05-27T02:04:33;102698.13;;;9.78;96.46
62708;BME280;48769;51.624;5.886;2023-05-27T02:06:58;102696.34;;;9.80;96.43
62708;BME280;48769;51.624;5.886;2023-05-27T02:09:24;102698.03;;;9.84;96.42
62708;BME280;48769;51.624;5.886;2023-05-27T02:11:49;102691.03;;;9.83;96.30
62708;BME280;48769;51.624;5.886;2023-05-27T02:14:14;102690.16;;;9.81;95.85
62708;BME280;48769;51.624;5.886;2023-05-27T02:16:40;102691.97;;;9.79;96.10
62708;BME280;48769;51.624;5.886;2023-05-27T02:19:05;102694.72;;;9.73;96.96
62708;BME280;48769;51.624;5.886;2023-05-27T02:21:31;102689.47;;;9.73;97.28
62708;BME280;48769;51.624;5.886;2023-05-27T02:23:56;102687.84;;;9.66;97.58
62708;BME280;48769;51.624;5.886;2023-05-27T02:26:22;102685.19;;;9.64;97.91
62708;BME280;48769;51.624;5.886;2023-05-27T02:28:47;102687.03;;;9.60;98.28
62708;BME280;48769;51.624;5.886;2023-05-27T02:31:13;102687.84;;;9.66;97.83
62708;BME280;48769;51.624;5.886;2023-05-27T02:33:38;102698.50;;;9.59;98.49
62708;BME280;48769;51.624;5.886;2023-05-27T02:36:04;102700.28;;;9.57;98.28
62708;BME280;48769;51.624;5.886;2023-05-27T02:38:29;102698.59;;;9.52;99.74
62708;BME280;48769;51.624;5.886;2023-05-27T02:40:54;102697.78;;;9.50;99.48
62708;BME280;48769;51.624;5.886;2023-05-27T02:43:20;102702.97;;;9.54;99.80
62708;BME280;48769;51.624;5.886;2023-05-27T02:45:45;102698.59;;;9.53;99.30
62708;BME280;48769;51.624;5.886;2023-05-27T02:48:10;102708.34;;;9.48;100.00
62708;BME280;48769;51.624;5.886;2023-05-27T02:50:36;102709.25;;;9.47;100.00
62708;BME280;48769;51.624;5.886;2023-05-27T02:53:01;102705.72;;;9.48;100.00
62708;BME280;48769;51.624;5.886;2023-05-27T02:55:26;102704.03;;;9.44;100.00
62708;BME280;48769;51.624;5.886;2023-05-27T02:57:52;102706.66;;;9.46;100.00
62708;BME280;48769;51.624;5.886;2023-05-27T03:00:17;102702.28;;;9.43;100.00
62708;BME280;48769;51.624;5.886;2023-05-27T03:02:43;102703.31;;;9.36;100.00
62708;BME280;48769;51.624;5.886;2023-05-27T03:05:09;102704.28;;;9.29;100.00
62708;BME280;48769;51.624;5.886;2023-05-27T03:07:34;102710.53;;;9.23;100.00
62708;BME280;48769;51.624;5.886;2023-05-27T03:09:59;102713.28;;;9.16;100.00
62708;BME280;48769;51.624;5.886;2023-05-27T03:12:25;102705.53;;;9.05;100.00
62708;BME280;48769;51.624;5.886;2023-05-27T03:14:50;102705.53;;;9.05;100.00
62708;BME280;48769;51.624;5.886;2023-05-27T03:17:18;102709.03;;;9.07;100.00
62708;BME280;48769;51.624;5.886;2023-05-27T03:19:44;102708.13;;;9.06;100.00
62708;BME280;48769;51.624;5.886;2023-05-27T03:22:10;102714.38;;;9.02;100.00
62708;BME280;48769;51.624;5.886;2023-05-27T03:24:35;102716.91;;;9.08;100.00
62708;BME280;48769;51.624;5.886;2023-05-27T03:27:01;102716.06;;;9.06;100.00
62708;BME280;48769;51.624;5.886;2023-05-27T03:29:28;102714.34;;;9.04;100.00
62708;BME280;48769;51.624;5.886;2023-05-27T03:31:54;102711.72;;;9.02;100.00
62708;BME280;48769;51.624;5.886;2023-05-27T03:34:19;102715.28;;;9.01;100.00
62708;BME280;48769;51.624;5.886;2023-05-27T03:36:44;102713.59;;;8.97;100.00
62708;BME280;48769;51.624;5.886;2023-05-27T03:39:14;102700.50;;;8.91;100.00
62708;BME280;48769;51.624;5.886;2023-05-27T03:41:40;102700.44;;;8.94;100.00
62708;BME280;48769;51.624;5.886;2023-05-27T03:44:06;102702.91;;;9.03;100.00
62708;BME280;48769;51.624;5.886;2023-05-27T03:46:33;102699.38;;;9.07;100.00
62708;BME280;48769;51.624;5.886;2023-05-27T03:48:58;102693.22;;;9.07;100.00
62708;BME280;48769;51.624;5.886;2023-05-27T03:51:24;102694.03;;;9.10;100.00
62708;BME280;48769;51.624;5.886;2023-05-27T03:53:49;102685.22;;;9.11;100.00
62708;BME280;48769;51.624;5.886;2023-05-27T03:56:18;102691.31;;;9.17;100.00
62708;BME280;48769;51.624;5.886;2023-05-27T03:58:44;102686.91;;;9.16;100.00
62708;BME280;48769;51.624;5.886;2023-05-27T04:01:09;102692.22;;;9.12;100.00
62708;BME280;48769;51.624;5.886;2023-05-27T04:03:36;102679.94;;;9.11;100.00
62708;BME280;48769;51.624;5.886;2023-05-27T04:06:02;102678.28;;;9.07;100.00
62708;BME280;48769;51.624;5.886;2023-05-27T04:08:29;102679.28;;;9.00;100.00
62708;BME280;48769;51.624;5.886;2023-05-27T04:10:55;102673.13;;;8.98;100.00
62708;BME280;48769;51.624;5.886;2023-05-27T04:13:21;102681.06;;;8.97;100.00
62708;BME280;48769;51.624;5.886;2023-05-27T04:15:46;102681.94;;;8.97;100.00
62708;BME280;48769;51.624;5.886;2023-05-27T04:18:12;102687.25;;;8.94;100.00
62708;BME280;48769;51.624;5.886;2023-05-27T04:20:39;102680.28;;;8.90;100.00
62708;BME280;48769;51.624;5.886;2023-05-27T04:23:07;102680.22;;;8.93;100.00
62708;BME280;48769;51.624;5.886;2023-05-27T04:25:32;102683.63;;;9.00;100.00
62708;BME280;48769;51.624;5.886;2023-05-27T04:27:59;102680.19;;;8.96;100.00
62708;BME280;48769;51.624;5.886;2023-05-27T04:30:25;102681.06;;;8.97;100.00
62708;BME280;48769;51.624;5.886;2023-05-27T04:32:51;102668.81;;;8.93;100.00
62708;BME280;48769;51.624;5.886;2023-05-27T04:35:17;102673.13;;;8.98;100.00
62708;BME280;48769;51.624;5.886;2023-05-27T04:37:43;102667.91;;;8.95;100.00
62708;BME280;48769;51.624;5.886;2023-05-27T04:40:10;102665.31;;;8.92;100.00
62708;BME280;48769;51.624;5.886;2023-05-27T04:42:35;102667.00;;;8.98;100.00
62708;BME280;48769;51.624;5.886;2023-05-27T04:45:02;102667.78;;;9.03;100.00
62708;BME280;48769;51.624;5.886;2023-05-27T04:47:28;102671.19;;;9.09;100.00
62708;BME280;48769;51.624;5.886;2023-05-27T04:49:55;102662.22;;;9.21;100.00
62708;BME280;48769;51.624;5.886;2023-05-27T04:52:21;102669.00;;;9.36;100.00
62708;BME280;48769;51.624;5.886;2023-05-27T04:54:48;102663.53;;;9.47;100.00
62708;BME280;48769;51.624;5.886;2023-05-27T04:57:13;102655.09;;;9.76;100.00
62708;BME280;48769;51.624;5.886;2023-05-27T04:59:43;102657.00;;;10.13;100.00
62708;BME280;48769;51.624;5.886;2023-05-27T05:02:27;102643.50;;;10.28;100.00
62708;BME280;48769;51.624;5.886;2023-05-27T05:05:03;102661.16;;;10.66;100.00
62708;BME280;48769;51.624;5.886;2023-05-27T05:07:29;102661.19;;;11.02;100.00
62708;BME280;48769;51.624;5.886;2023-05-27T05:09:55;102658.75;;;11.29;98.19
62708;BME280;48769;51.624;5.886;2023-05-27T05:12:20;102642.84;;;11.63;96.46
62708;BME280;48769;51.624;5.886;2023-05-27T05:14:45;102649.59;;;11.75;94.23
62708;BME280;48769;51.624;5.886;2023-05-27T05:17:11;102648.66;;;12.10;92.45
62708;BME280;48769;51.624;5.886;2023-05-27T05:19:36;102642.78;;;12.28;90.90
62708;BME280;48769;51.624;5.886;2023-05-27T05:22:02;102638.28;;;12.60;89.12
62708;BME280;48769;51.624;5.886;2023-05-27T05:24:27;102645.28;;;12.91;86.48
62708;BME280;48769;51.624;5.886;2023-05-27T05:26:52;102638.00;;;13.22;85.03
62708;BME280;48769;51.624;5.886;2023-05-27T05:29:18;102633.81;;;13.17;82.16
62708;BME280;48769;51.624;5.886;2023-05-27T05:31:43;102623.44;;;13.36;82.26
62708;BME280;48769;51.624;5.886;2023-05-27T05:34:10;102628.75;;;13.61;80.92
62708;BME280;48769;51.624;5.886;2023-05-27T05:36:36;102627.34;;;13.75;80.13
62708;BME280;48769;51.624;5.886;2023-05-27T05:39:02;102622.63;;;14.07;78.93
62708;BME280;48769;51.624;5.886;2023-05-27T05:41:28;102619.78;;;14.35;77.39
62708;BME280;48769;51.624;5.886;2023-05-27T05:43:53;102619.88;;;14.32;75.36
62708;BME280;48769;51.624;5.886;2023-05-27T05:46:19;102619.50;;;14.43;76.13
62708;BME280;48769;51.624;5.886;2023-05-27T05:48:44;102615.94;;;14.66;75.75
62708;BME280;48769;51.624;5.886;2023-05-27T05:51:09;102602.91;;;15.02;74.21
62708;BME280;48769;51.624;5.886;2023-05-27T05:53:34;102607.03;;;15.30;72.59
62708;BME280;48769;51.624;5.886;2023-05-27T05:56:00;102597.66;;;15.41;71.01
62708;BME280;48769;51.624;5.886;2023-05-27T05:58:25;102603.47;;;15.31;70.55
62708;BME280;48769;51.624;5.886;2023-05-27T06:00:51;102599.69;;;15.76;70.20
62708;BME280;48769;51.624;5.886;2023-05-27T06:03:16;102597.72;;;15.81;69.58
62708;BME280;48769;51.624;5.886;2023-05-27T06:05:42;102602.56;;;16.10;69.61
62708;BME280;48769;51.624;5.886;2023-05-27T06:08:07;102598.75;;;16.35;68.50
62708;BME280;48769;51.624;5.886;2023-05-27T06:10:32;102598.94;;;16.49;67.14
62708;BME280;48769;51.624;5.886;2023-05-27T06:12:58;102605.25;;;16.85;66.45
62708;BME280;48769;51.624;5.886;2023-05-27T06:15:23;102600.84;;;16.65;65.37
62708;BME280;48769;51.624;5.886;2023-05-27T06:17:48;102596.53;;;16.81;65.39
62708;BME280;48769;51.624;5.886;2023-05-27T06:20:14;102595.91;;;17.28;64.52
62708;BME280;48769;51.624;5.886;2023-05-27T06:22:39;102599.84;;;17.21;63.68
62708;BME280;48769;51.624;5.886;2023-05-27T06:25:05;102592.59;;;17.05;63.97
62708;BME280;48769;51.624;5.886;2023-05-27T06:27:31;102588.19;;;17.39;62.64
62708;BME280;48769;51.624;5.886;2023-05-27T06:29:56;102588.28;;;17.71;61.98
62708;BME280;48769;51.624;5.886;2023-05-27T06:32:22;102583.72;;;17.73;61.30
62708;BME280;48769;51.624;5.886;2023-05-27T06:34:47;102582.88;;;17.72;61.58
62708;BME280;48769;51.624;5.886;2023-05-27T06:37:13;102588.22;;;17.72;61.79
62708;BME280;48769;51.624;5.886;2023-05-27T06:39:38;102580.19;;;18.06;60.42
62708;BME280;48769;51.624;5.886;2023-05-27T06:42:03;102575.28;;;17.98;60.01
62708;BME280;48769;51.624;5.886;2023-05-27T06:44:29;102572.06;;;18.39;59.87
62708;BME280;48769;51.624;5.886;2023-05-27T06:46:54;102575.81;;;18.20;59.53
62708;BME280;48769;51.624;5.886;2023-05-27T06:49:19;102563.13;;;18.70;58.88
62708;BME280;48769;51.624;5.886;2023-05-27T06:51:45;102557.97;;;18.67;57.80
62708;BME280;48769;51.624;5.886;2023-05-27T06:54:10;102556.59;;;19.20;56.45
62708;BME280;48769;51.624;5.886;2023-05-27T06:56:37;102551.69;;;19.71;55.67
62708;BME280;48769;51.624;5.886;2023-05-27T06:59:03;102543.56;;;19.73;54.01
62708;BME280;48769;51.624;5.886;2023-05-27T07:01:28;102546.09;;;20.03;53.76
62708;BME280;48769;51.624;5.886;2023-05-27T07:03:53;102545.72;;;20.09;52.46
62708;BME280;48769;51.624;5.886;2023-05-27T07:06:18;102546.69;;;19.94;54.79
62708;BME280;48769;51.624;5.886;2023-05-27T07:08:44;102550.06;;;20.24;53.02
62708;BME280;48769;51.624;5.886;2023-05-27T07:11:09;102541.31;;;19.94;52.73
62708;BME280;48769;51.624;5.886;2023-05-27T07:13:34;102539.22;;;19.99;52.94
62708;BME280;48769;51.624;5.886;2023-05-27T07:16:00;102545.72;;;20.09;52.08
62708;BME280;48769;51.624;5.886;2023-05-27T07:18:25;102534.75;;;19.71;53.29
62708;BME280;48769;51.624;5.886;2023-05-27T07:20:51;102553.41;;;19.44;54.62
62708;BME280;48769;51.624;5.886;2023-05-27T07:23:16;102536.75;;;19.67;53.92
62708;BME280;48769;51.624;5.886;2023-05-27T07:25:41;102530.78;;;20.32;52.96
62708;BME280;48769;51.624;5.886;2023-05-27T07:28:07;102533.75;;;20.82;51.57
62708;BME280;48769;51.624;5.886;2023-05-27T07:30:32;102527.66;;;21.05;50.02
62708;BME280;48769;51.624;5.886;2023-05-27T07:32:58;102522.22;;;21.45;49.31
62708;BME280;48769;51.624;5.886;2023-05-27T07:35:23;102514.63;;;21.76;48.98
62708;BME280;48769;51.624;5.886;2023-05-27T07:37:48;102522.63;;;22.73;47.85
62708;BME280;48769;51.624;5.886;2023-05-27T07:40:14;102515.16;;;22.66;45.62
62708;BME280;48769;51.624;5.886;2023-05-27T07:42:39;102505.84;;;23.05;45.54
62708;BME280;48769;51.624;5.886;2023-05-27T07:45:05;102507.09;;;23.35;44.54
62708;BME280;48769;51.624;5.886;2023-05-27T07:47:31;102508.72;;;23.71;45.61
62708;BME280;48769;51.624;5.886;2023-05-27T07:49:56;102501.09;;;23.53;44.27
62708;BME280;48769;51.624;5.886;2023-05-27T07:52:21;102502.31;;;23.04;45.17
62708;BME280;48769;51.624;5.886;2023-05-27T07:54:47;102497.38;;;22.63;46.14
62708;BME280;48769;51.624;5.886;2023-05-27T07:57:13;102497.59;;;21.88;47.31
62708;BME280;48769;51.624;5.886;2023-05-27T07:59:42;102500.31;;;21.75;48.08
62708;BME280;48769;51.624;5.886;2023-05-27T08:02:07;102499.72;;;21.46;48.34
62708;BME280;48769;51.624;5.886;2023-05-27T08:04:32;102503.38;;;21.19;50.17
62708;BME280;48769;51.624;5.886;2023-05-27T08:06:57;102502.56;;;20.79;50.20
62708;BME280;48769;51.624;5.886;2023-05-27T08:09:23;102498.25;;;20.37;52.01
62708;BME280;48769;51.624;5.886;2023-05-27T08:11:49;102505.56;;;20.35;52.71
62708;BME280;48769;51.624;5.886;2023-05-27T08:14:15;102505.31;;;20.25;53.23
62708;BME280;48769;51.624;5.886;2023-05-27T08:16:41;102504.50;;;20.10;54.40
62708;BME280;48769;51.624;5.886;2023-05-27T08:19:06;102499.38;;;19.93;53.75
62708;BME280;48769;51.624;5.886;2023-05-27T08:21:32;102492.38;;;19.90;54.49
62708;BME280;48769;51.624;5.886;2023-05-27T08:23:57;102493.88;;;19.67;55.45
62708;BME280;48769;51.624;5.886;2023-05-27T08:26:23;102490.41;;;19.79;55.60
62708;BME280;48769;51.624;5.886;2023-05-27T08:28:48;102478.47;;;19.98;55.07
62708;BME280;48769;51.624;5.886;2023-05-27T08:31:14;102480.00;;;20.02;54.52
62708;BME280;48769;51.624;5.886;2023-05-27T08:33:39;102474.69;;;19.73;55.20
62708;BME280;48769;51.624;5.886;2023-05-27T08:36:05;102467.78;;;19.69;56.35
62708;BME280;48769;51.624;5.886;2023-05-27T08:38:31;102474.13;;;19.54;57.26
62708;BME280;48769;51.624;5.886;2023-05-27T08:40:56;102481.59;;;19.77;56.93
62708;BME280;48769;51.624;5.886;2023-05-27T08:43:22;102468.19;;;19.77;57.59
62708;BME280;48769;51.624;5.886;2023-05-27T08:45:48;102463.22;;;19.98;57.55
62708;BME280;48769;51.624;5.886;2023-05-27T08:48:14;102460.44;;;20.00;55.82
62708;BME280;48769;51.624;5.886;2023-05-27T08:50:40;102453.44;;;19.70;55.92
62708;BME280;48769;51.624;5.886;2023-05-27T08:53:05;102448.63;;;19.61;56.20
62708;BME280;48769;51.624;5.886;2023-05-27T08:55:31;102443.94;;;19.79;56.77
62708;BME280;48769;51.624;5.886;2023-05-27T08:57:58;102440.97;;;19.83;56.38
62708;BME280;48769;51.624;5.886;2023-05-27T09:00:25;102443.34;;;20.15;56.48
62708;BME280;48769;51.624;5.886;2023-05-27T09:02:51;102438.09;;;20.26;56.24
62708;BME280;48769;51.624;5.886;2023-05-27T09:05:17;102444.25;;;20.28;54.62
62708;BME280;48769;51.624;5.886;2023-05-27T09:07:43;102428.81;;;20.45;56.35
62708;BME280;48769;51.624;5.886;2023-05-27T09:10:09;102423.47;;;20.45;54.91
62708;BME280;48769;51.624;5.886;2023-05-27T09:12:35;102428.63;;;20.48;53.97
62708;BME280;48769;51.624;5.886;2023-05-27T09:15:02;102419.41;;;20.52;53.23
62708;BME280;48769;51.624;5.886;2023-05-27T09:17:27;102418.44;;;20.53;54.25
62708;BME280;48769;51.624;5.886;2023-05-27T09:19:54;102423.72;;;20.67;53.20
62708;BME280;48769;51.624;5.886;2023-05-27T09:22:21;102416.97;;;20.74;53.73
62708;BME280;48769;51.624;5.886;2023-05-27T09:24:47;102412.31;;;20.76;52.78
62708;BME280;48769;51.624;5.886;2023-05-27T09:27:15;102411.25;;;20.66;53.42
62708;BME280;48769;51.624;5.886;2023-05-27T09:29:41;102410.31;;;20.67;53.09
62708;BME280;48769;51.624;5.886;2023-05-27T09:32:06;102411.03;;;20.69;53.31
62708;BME280;48769;51.624;5.886;2023-05-27T09:34:38;102408.34;;;20.69;52.79
62708;BME280;48769;51.624;5.886;2023-05-27T09:37:04;102407.16;;;20.86;54.12
62708;BME280;48769;51.624;5.886;2023-05-27T09:39:29;102408.34;;;20.95;53.35
62708;BME280;48769;51.624;5.886;2023-05-27T09:41:56;102398.66;;;21.05;51.87
62708;BME280;48769;51.624;5.886;2023-05-27T09:44:31;102398.59;;;20.94;51.57
62708;BME280;48769;51.624;5.886;2023-05-27T09:47:03;102393.84;;;20.85;53.36
62708;BME280;48769;51.624;5.886;2023-05-27T09:49:29;102384.41;;;20.79;51.73
62708;BME280;48769;51.624;5.886;2023-05-27T09:51:57;102384.53;;;20.77;52.16
62708;BME280;48769;51.624;5.886;2023-05-27T09:54:24;102380.34;;;20.73;51.46
62708;BME280;48769;51.624;5.886;2023-05-27T09:56:49;102377.94;;;20.94;51.81
62708;BME280;48769;51.624;5.886;2023-05-27T09:59:16;102380.28;;;21.12;50.77
62708;BME280;48769;51.624;5.886;2023-05-27T10:01:45;102379.22;;;21.14;51.18
62708;BME280;48769;51.624;5.886;2023-05-27T10:04:10;102373.38;;;21.33;49.90
62708;BME280;48769;51.624;5.886;2023-05-27T10:06:37;102358.25;;;21.56;49.73
62708;BME280;48769;51.624;5.886;2023-05-27T10:09:04;102362.84;;;21.67;49.60
62708;BME280;48769;51.624;5.886;2023-05-27T10:11:34;102354.59;;;21.57;48.62
62708;BME280;48769;51.624;5.886;2023-05-27T10:14:04;102350.75;;;21.73;50.24
62708;BME280;48769;51.624;5.886;2023-05-27T10:16:31;102359.38;;;21.78;50.02
62708;BME280;48769;51.624;5.886;2023-05-27T10:18:57;102351.97;;;21.68;49.26
62708;BME280;48769;51.624;5.886;2023-05-27T10:21:27;102344.06;;;21.54;49.15
62708;BME280;48769;51.624;5.886;2023-05-27T10:23:56;102353.34;;;21.50;50.40
62708;BME280;48769;51.624;5.886;2023-05-27T10:26:35;102343.50;;;21.62;49.03
62708;BME280;48769;51.624;5.886;2023-05-27T10:29:08;102344.13;;;21.65;49.21
62708;BME280;48769;51.624;5.886;2023-05-27T10:31:34;102352.19;;;21.65;49.07
62708;BME280;48769;51.624;5.886;2023-05-27T10:34:03;102346.38;;;21.72;48.47
62708;BME280;48769;51.624;5.886;2023-05-27T10:36:31;102333.41;;;21.77;47.28
62708;BME280;48769;51.624;5.886;2023-05-27T10:39:01;102329.03;;;21.76;47.09
62708;BME280;48769;51.624;5.886;2023-05-27T10:41:28;102326.31;;;21.76;47.60
62708;BME280;48769;51.624;5.886;2023-05-27T10:43:57;102329.28;;;21.84;49.21
62708;BME280;48769;51.624;5.886;2023-05-27T10:46:23;102327.13;;;21.89;48.69
62708;BME280;48769;51.624;5.886;2023-05-27T10:48:49;102317.97;;;21.67;47.03
62708;BME280;48769;51.624;5.886;2023-05-27T10:51:15;102324.41;;;21.78;48.91
62708;BME280;48769;51.624;5.886;2023-05-27T10:53:40;102312.91;;;21.87;48.56
62708;BME280;48769;51.624;5.886;2023-05-27T10:56:06;102309.25;;;21.88;46.74
62708;BME280;48769;51.624;5.886;2023-05-27T10:58:35;102304.13;;;21.61;46.25
62708;BME280;48769;51.624;5.886;2023-05-27T11:01:07;102311.78;;;21.54;47.59
62708;BME280;48769;51.624;5.886;2023-05-27T11:03:33;102305.03;;;21.73;49.20
62708;BME280;48769;51.624;5.886;2023-05-27T11:06:03;102299.84;;;22.17;46.29
62708;BME280;48769;51.624;5.886;2023-05-27T11:08:29;102287.13;;;22.31;45.72
62708;BME280;48769;51.624;5.886;2023-05-27T11:11:02;102290.31;;;22.47;43.90
62708;BME280;48769;51.624;5.886;2023-05-27T11:13:36;102285.91;;;22.57;44.15
62708;BME280;48769;51.624;5.886;2023-05-27T11:16:03;102274.31;;;22.46;44.49
62708;BME280;48769;51.624;5.886;2023-05-27T11:21:03;102274.31;;;22.46;45.33
62708;BME280;48769;51.624;5.886;2023-05-27T11:23:37;102270.16;;;22.06;44.59
62708;BME280;48769;51.624;5.886;2023-05-27T11:26:04;102263.69;;;22.09;45.03
62708;BME280;48769;51.624;5.886;2023-05-27T11:28:31;102257.44;;;22.08;43.68
62708;BME280;48769;51.624;5.886;2023-05-27T11:31:02;102241.78;;;22.02;42.49
62708;BME280;48769;51.624;5.886;2023-05-27T11:33:32;102247.66;;;22.07;43.05
62708;BME280;48769;51.624;5.886;2023-05-27T11:36:05;102248.94;;;22.26;43.76
62708;BME280;48769;51.624;5.886;2023-05-27T11:38:31;102244.28;;;22.39;44.01
62708;BME280;48769;51.624;5.886;2023-05-27T11:41:07;102233.03;;;22.56;42.16
62708;BME280;48769;51.624;5.886;2023-05-27T11:43:32;102238.91;;;22.61;42.94
62708;BME280;48769;51.624;5.886;2023-05-27T11:46:04;102231.31;;;22.67;43.42
62708;BME280;48769;51.624;5.886;2023-05-27T11:48:29;102231.53;;;22.75;42.51
62708;BME280;48769;51.624;5.886;2023-05-27T11:50:55;102231.06;;;22.70;43.73
62708;BME280;48769;51.624;5.886;2023-05-27T11:53:20;102217.34;;;22.73;41.35
62708;BME280;48769;51.624;5.886;2023-05-27T11:55:45;102217.94;;;22.76;42.32
62708;BME280;48769;51.624;5.886;2023-05-27T11:58:11;102214.50;;;22.85;43.33
62708;BME280;48769;51.624;5.886;2023-05-27T12:00:36;102209.38;;;22.82;41.33
62708;BME280;48769;51.624;5.886;2023-05-27T12:03:01;102206.19;;;22.77;42.48
62708;BME280;48769;51.624;5.886;2023-05-27T12:05:27;102197.88;;;22.69;41.29
62708;BME280;48769;51.624;5.886;2023-05-27T12:07:52;102202.06;;;22.62;42.52
62708;BME280;48769;51.624;5.886;2023-05-27T12:10:17;102194.59;;;22.66;40.74
62708;BME280;48769;51.624;5.886;2023-05-27T12:12:42;102196.69;;;22.62;41.42
62708;BME280;48769;51.624;5.886;2023-05-27T12:15:09;102199.97;;;22.54;42.34
62708;BME280;48769;51.624;5.886;2023-05-27T12:17:34;102196.78;;;22.72;42.25
62708;BME280;48769;51.624;5.886;2023-05-27T12:20:00;102184.63;;;22.77;41.22
62708;BME280;48769;51.624;5.886;2023-05-27T12:22:25;102180.25;;;22.76;41.97
62708;BME280;48769;51.624;5.886;2023-05-27T12:24:50;102182.63;;;22.91;41.83
62708;BME280;48769;51.624;5.886;2023-05-27T12:27:18;102175.63;;;23.10;41.39
62708;BME280;48769;51.624;5.886;2023-05-27T12:29:44;102174.59;;;23.23;41.89
62708;BME280;48769;51.624;5.886;2023-05-27T12:32:09;102173.16;;;23.19;41.37
62708;BME280;48769;51.624;5.886;2023-05-27T12:34:34;102173.81;;;23.32;42.58
62708;BME280;48769;51.624;5.886;2023-05-27T12:37:00;102161.41;;;23.41;40.80
62708;BME280;48769;51.624;5.886;2023-05-27T12:39:28;102164.47;;;23.36;40.28
62708;BME280;48769;51.624;5.886;2023-05-27T12:41:53;102154.44;;;23.38;39.28
62708;BME280;48769;51.624;5.886;2023-05-27T12:44:19;102154.50;;;23.27;39.37
62708;BME280;48769;51.624;5.886;2023-05-27T12:46:44;102147.84;;;23.31;40.78
62708;BME280;48769;51.624;5.886;2023-05-27T12:49:09;102149.78;;;23.40;40.42
62708;BME280;48769;51.624;5.886;2023-05-27T12:51:35;102141.78;;;23.39;40.31
62708;BME280;48769;51.624;5.886;2023-05-27T12:54:00;102149.91;;;23.60;40.84